Time,TemperatureF,DewpointF,PressureIn,WindDirection,WindDirectionDegrees,WindSpeedMPH,WindSpeedGustMPH,Humidity,HourlyPrecipIn,Conditions,Clouds,dailyrainin,SoftwareType,DateUTC
2013-09-05 00:12:00,58.0,54.0,-100.00,SSW,207,0.0,0.0,88,0.00,,,0.00,,2013-09-05 06:12:00,
2013-09-05 00:21:00,57.0,53.0,-100.00,SSW,207,0.0,0.0,88,0.00,,,0.00,,2013-09-05 06:21:00,
2013-09-05 00:52:00,57.0,54.0,-100.00,SSW,207,0.0,0.0,89,0.00,,,0.00,,2013-09-05 06:52:00,
2013-09-05 01:12:00,56.0,53.0,-100.00,SSW,207,0.0,0.0,90,0.00,,,0.00,,2013-09-05 07:12:00,
2013-09-05 01:22:00,56.0,53.0,-100.00,SSW,207,0.0,0.0,89,0.00,,,0.00,,2013-09-05 07:22:00,
2013-09-05 01:52:00,56.0,53.0,-100.00,SSW,207,0.0,0.0,90,0.00,,,0.00,,2013-09-05 07:52:00,
2013-09-05 02:12:00,57.0,54.0,-100.00,SSW,207,0.0,0.0,91,0.00,,,0.00,,2013-09-05 08:12:00,
2013-09-05 02:21:00,57.0,54.0,-100.00,SSW,207,0.0,0.0,91,0.00,,,0.00,,2013-09-05 08:21:00,
2013-09-05 02:52:00,55.0,52.0,-100.00,SSW,207,0.0,0.0,91,0.00,,,0.00,,2013-09-05 08:52:00,
2013-09-05 03:11:00,55.0,52.0,-100.00,SSW,207,0.0,0.0,91,0.00,,,0.00,,2013-09-05 09:11:00,
2013-09-05 03:22:00,55.0,53.0,-100.00,SSW,207,0.0,0.0,92,0.00,,,0.00,,2013-09-05 09:22:00,
2013-09-05 03:53:00,54.0,52.0,-100.00,SSW,207,0.0,0.0,92,0.00,,,0.00,,2013-09-05 09:53:00,
2013-09-05 04:12:00,54.0,52.0,-100.00,SSW,207,0.0,0.0,92,0.00,,,0.00,,2013-09-05 10:12:00,
2013-09-05 04:23:00,53.0,51.0,-100.00,SSW,207,0.0,0.0,93,0.00,,,0.00,,2013-09-05 10:23:00,
2013-09-05 04:53:00,53.0,51.0,-100.00,SSW,207,0.0,0.0,93,0.00,,,0.00,,2013-09-05 10:53:00,
2013-09-05 05:11:00,53.0,51.0,-100.00,SSW,207,0.0,0.0,93,0.00,,,0.00,,2013-09-05 11:11:00,
2013-09-05 05:21:00,53.0,51.0,-100.00,SSW,207,0.0,0.0,94,0.00,,,0.00,,2013-09-05 11:21:00,
2013-09-05 05:52:00,53.0,51.0,-100.00,SSW,207,0.0,0.0,93,0.00,,,0.00,,2013-09-05 11:52:00,
2013-09-05 06:12:00,53.0,51.0,-100.00,SSW,207,0.0,0.0,93,0.00,,,0.00,,2013-09-05 12:12:00,
2013-09-05 06:21:00,53.0,51.0,-100.00,SSW,207,0.0,0.0,93,0.00,,,0.00,,2013-09-05 12:21:00,
2013-09-05 06:52:00,53.0,51.0,-100.00,SSW,207,0.0,0.0,92,0.00,,,0.00,,2013-09-05 12:52:00,
2013-09-05 07:12:00,53.0,50.0,-100.00,SSW,207,0.0,0.0,91,0.00,,,0.00,,2013-09-05 13:12:00,
2013-09-05 07:21:00,53.0,51.0,-100.00,SSW,212,0.0,0.0,92,0.00,,,0.00,,2013-09-05 13:21:00,
2013-09-05 07:53:00,54.0,52.0,-100.00,SSW,212,0.0,0.0,92,0.00,,,0.00,,2013-09-05 13:53:00,
2013-09-05 08:21:00,54.0,52.0,-100.00,SSW,212,0.0,2.0,93,0.00,,,0.00,,2013-09-05 14:21:00,
2013-09-05 08:42:00,55.0,52.0,-100.00,SSW,212,0.0,2.0,91,0.00,,,0.00,,2013-09-05 14:42:00,
2013-09-05 08:52:00,55.0,52.0,-100.00,NNE,28,0.0,3.0,91,0.00,,,0.00,,2013-09-05 14:52:00,
2013-09-05 09:22:00,56.0,52.0,-100.00,NW,311,2.0,3.0,88,0.00,,,0.00,,2013-09-05 15:22:00,
2013-09-05 09:54:00,60.0,54.0,-100.00,WNW,293,1.0,4.0,80,0.00,,,0.00,,2013-09-05 15:54:00,
2013-09-05 10:23:00,63.0,55.0,-100.00,WNW,285,0.0,2.0,74,0.00,,,0.00,,2013-09-05 16:23:00,
2013-09-05 10:43:00,64.0,54.0,-100.00,WNW,285,0.0,2.0,71,0.00,,,0.00,,2013-09-05 16:43:00,
2013-09-05 10:54:00,63.0,54.0,-100.00,WNW,285,1.0,2.0,72,0.00,,,0.00,,2013-09-05 16:54:00,
2013-09-05 11:12:00,63.0,55.0,-100.00,SW,235,0.0,3.0,74,0.00,,,0.00,,2013-09-05 17:12:00,
2013-09-05 11:23:00,63.0,55.0,-100.00,SSW,213,0.0,2.0,76,0.00,,,0.00,,2013-09-05 17:23:00,
2013-09-05 11:43:00,63.0,55.0,-100.00,SSW,213,0.0,2.0,74,0.00,,,0.00,,2013-09-05 17:43:00,
2013-09-05 11:52:00,63.0,55.0,-100.00,ENE,74,1.0,3.0,75,0.00,,,0.00,,2013-09-05 17:52:00,
2013-09-05 12:12:00,63.0,55.0,-100.00,ENE,69,0.0,2.0,75,0.00,,,0.00,,2013-09-05 18:12:00,
2013-09-05 12:21:00,66.0,55.0,-100.00,SSW,208,0.0,4.0,68,0.00,,,0.00,,2013-09-05 18:21:00,
2013-09-05 12:52:00,69.0,56.0,-100.00,SSE,164,1.0,3.0,63,0.00,,,0.00,,2013-09-05 18:52:00,
2013-09-05 13:11:00,72.0,57.0,-100.00,South,191,3.0,7.0,59,0.00,,,0.00,,2013-09-05 19:11:00,
2013-09-05 13:21:00,74.0,54.0,-100.00,SW,219,0.0,4.0,50,0.00,,,0.00,,2013-09-05 19:21:00,
2013-09-05 13:42:00,76.0,54.0,-100.00,SW,224,1.0,3.0,46,0.00,,,0.00,,2013-09-05 19:42:00,
2013-09-05 13:52:00,78.0,54.0,-100.00,SW,235,1.0,4.0,43,0.00,,,0.00,,2013-09-05 19:52:00,
2013-09-05 14:22:00,79.0,54.0,-100.00,SSW,198,0.0,6.0,42,0.00,,,0.00,,2013-09-05 20:22:00,
2013-09-05 14:52:00,80.0,51.0,-100.00,SSE,155,1.0,4.0,37,0.00,,,0.00,,2013-09-05 20:52:00,
2013-09-05 15:21:00,81.0,52.0,-100.00,SE,144,1.0,4.0,37,0.00,,,0.00,,2013-09-05 21:21:00,
2013-09-05 15:54:00,82.0,51.0,-100.00,SSE,161,1.0,2.0,34,0.00,,,0.00,,2013-09-05 21:54:00,
2013-09-05 16:13:00,82.0,55.0,-100.00,WSW,249,0.0,3.0,39,0.00,,,0.00,,2013-09-05 22:13:00,
2013-09-05 16:24:00,82.0,57.0,-100.00,South,178,1.0,3.0,42,0.00,,,0.00,,2013-09-05 22:24:00,
2013-09-05 16:53:00,84.0,52.0,-100.00,South,185,3.0,8.0,33,0.00,,,0.00,,2013-09-05 22:53:00,
2013-09-05 17:12:00,84.0,51.0,-100.00,SW,214,2.0,9.0,32,0.00,,,0.00,,2013-09-05 23:12:00,
2013-09-05 17:22:00,84.0,52.0,-100.00,WSW,241,2.0,9.0,33,0.00,,,0.00,,2013-09-05 23:22:00,
2013-09-05 17:53:00,83.0,51.0,-100.00,WSW,251,0.0,7.0,33,0.00,,,0.00,,2013-09-05 23:53:00,
2013-09-05 18:12:00,83.0,52.0,-100.00,SSE,164,1.0,6.0,34,0.00,,,0.00,,2013-09-06 00:12:00,
2013-09-05 18:22:00,81.0,54.0,-100.00,SSW,199,0.0,3.0,40,0.00,,,0.00,,2013-09-06 00:22:00,
2013-09-05 18:42:00,81.0,52.0,-100.00,South,189,2.0,5.0,37,0.00,,,0.00,,2013-09-06 00:42:00,
2013-09-05 18:52:00,81.0,55.0,-100.00,SSW,204,0.0,3.0,41,0.00,,,0.00,,2013-09-06 00:52:00,
2013-09-05 19:11:00,80.0,55.0,-100.00,SW,228,0.0,3.0,42,0.00,,,0.00,,2013-09-06 01:11:00,
2013-09-05 19:21:00,78.0,56.0,-100.00,SSW,206,0.0,0.0,47,0.00,,,0.00,,2013-09-06 01:21:00,
2013-09-05 19:41:00,76.0,51.0,-100.00,SSW,206,3.0,13.0,42,0.00,,,0.00,,2013-09-06 01:41:00,
2013-09-05 19:52:00,75.0,52.0,-100.00,West,276,1.0,9.0,44,0.00,,,0.00,,2013-09-06 01:52:00,
2013-09-05 21:22:00,64.0,54.0,-100.00,WSW,237,0.0,0.0,69,0.00,,,0.00,,2013-09-06 03:22:00,
2013-09-05 21:55:00,62.0,52.0,-100.00,WSW,238,0.0,0.0,69,0.00,,,0.00,,2013-09-06 03:55:00,
2013-09-05 22:23:00,62.0,52.0,-100.00,WSW,238,0.0,0.0,71,0.00,,,0.00,,2013-09-06 04:23:00,
2013-09-05 22:54:00,60.0,53.0,-100.00,WSW,238,0.0,0.0,79,0.00,,,0.00,,2013-09-06 04:54:00,
2013-09-05 23:12:00,59.0,53.0,-100.00,WSW,238,0.0,0.0,80,0.00,,,0.00,,2013-09-06 05:12:00,
2013-09-05 23:23:00,59.0,53.0,-100.00,WSW,238,0.0,0.0,81,0.00,,,0.00,,2013-09-06 05:23:00,
2013-09-05 23:52:00,58.0,52.0,-100.00,WSW,238,0.0,0.0,81,0.00,,,0.00,,2013-09-06 05:52:00,